Forrest City, Arkansas
Current Conditions -  °F | °C
As of 1:53 PM on Tuesday 21 Oct 2014 (Local Time) from KAWM Reporting Station
Clear Clear  
Wind Chill: 75°   Ceiling: Unl
Heat Index: 75°   Visibility: 10mi
Dew Point: 47°   Wind: 7mph
Humidity: 37%   Direction: 350°N
Pressure: 30.06"   Gusts: NA
Location:  35.01°N, 90.79°W
Report Text: KAWM 211853Z AUTO 35006KT 10SM CLR 24/08 A3006 RMK AO2 SLP175 T02390083
Loading
Personal Weather Stations






























Interactive Weather Map
Tropical Storm Tracking
New forecast layout! Learn more

10-Day Weather Forecast

Advertisements
Track Severe Weather on mobile